createdAt,value
2017-07-24T00:00:12.318Z,0
2017-07-24T00:01:13.549Z,0
2017-07-24T00:02:14.809Z,0
2017-07-24T00:03:16.061Z,0
2017-07-24T00:04:17.308Z,0
2017-07-24T00:05:18.555Z,0
2017-07-24T00:06:19.796Z,0
2017-07-24T00:07:21.083Z,0
2017-07-24T00:08:22.320Z,0
2017-07-24T00:09:23.674Z,0
2017-07-24T00:10:24.909Z,0
2017-07-24T00:11:26.149Z,0
2017-07-24T00:12:27.387Z,0
2017-07-24T00:13:28.718Z,0
2017-07-24T00:14:29.971Z,0
2017-07-24T00:15:31.198Z,0
2017-07-24T00:16:32.447Z,0
2017-07-24T00:17:33.680Z,0
2017-07-24T00:18:34.921Z,0
2017-07-24T00:19:36.159Z,0
2017-07-24T00:20:37.489Z,0
2017-07-24T00:21:38.733Z,0
2017-07-24T00:22:39.960Z,0
2017-07-24T00:23:41.198Z,0
2017-07-24T00:24:42.434Z,0
2017-07-24T00:25:43.742Z,0
2017-07-24T00:26:45.072Z,0
2017-07-24T00:27:46.406Z,0
2017-07-24T00:28:47.641Z,0
2017-07-24T00:29:48.983Z,0
2017-07-24T00:30:50.221Z,0
2017-07-24T00:31:51.510Z,0
2017-07-24T00:32:52.751Z,0
2017-07-24T00:33:54.102Z,0
2017-07-24T00:34:55.340Z,0
2017-07-24T00:35:56.573Z,0
2017-07-24T00:36:57.815Z,0
2017-07-24T00:37:59.085Z,0
2017-07-24T00:39:00.358Z,0
2017-07-24T00:40:01.629Z,0
2017-07-24T00:41:02.900Z,0
2017-07-24T00:42:04.136Z,0
2017-07-24T00:43:05.386Z,0
2017-07-24T00:44:06.712Z,0
2017-07-24T00:45:07.937Z,0
2017-07-24T00:46:09.300Z,0
2017-07-24T00:47:10.560Z,0
2017-07-24T00:48:11.795Z,0
2017-07-24T00:49:13.021Z,0
2017-07-24T00:50:14.265Z,0
2017-07-24T00:51:15.529Z,0
2017-07-24T00:52:16.763Z,0
2017-07-24T00:53:18.002Z,0
2017-07-24T00:54:19.241Z,0
2017-07-24T00:55:20.502Z,0
2017-07-24T00:56:21.729Z,0
2017-07-24T00:57:22.986Z,0
2017-07-24T00:58:24.239Z,0
2017-07-24T00:59:25.626Z,0
2017-07-24T01:00:27.057Z,0
2017-07-24T01:01:28.296Z,0
2017-07-24T01:02:29.533Z,0
2017-07-24T01:03:30.780Z,0
2017-07-24T01:04:32.033Z,0
2017-07-24T01:05:33.369Z,0
2017-07-24T01:06:34.605Z,0
2017-07-24T01:07:35.850Z,0
2017-07-24T01:08:37.089Z,0
2017-07-24T01:09:38.427Z,0
2017-07-24T01:10:39.591Z,0
2017-07-24T01:11:40.846Z,0
2017-07-24T01:12:42.081Z,0
2017-07-24T01:13:43.322Z,0
2017-07-24T01:14:44.561Z,0
2017-07-24T01:15:45.808Z,0
2017-07-24T01:16:47.066Z,0
2017-07-24T01:17:48.356Z,0
2017-07-24T01:18:49.593Z,0
2017-07-24T01:19:50.904Z,0
2017-07-24T01:20:52.131Z,0
2017-07-24T01:21:53.382Z,0
2017-07-24T01:22:54.616Z,0
2017-07-24T01:23:55.853Z,0
2017-07-24T01:24:57.101Z,0
2017-07-24T01:25:58.363Z,0
2017-07-24T01:26:59.596Z,0
2017-07-24T01:28:00.848Z,0
2017-07-24T01:29:02.079Z,0
2017-07-24T01:30:03.330Z,0
2017-07-24T01:31:04.675Z,0
2017-07-24T01:32:05.911Z,0
2017-07-24T01:33:07.155Z,0
2017-07-24T01:34:08.393Z,0
2017-07-24T01:35:09.644Z,0
2017-07-24T01:36:10.888Z,0
2017-07-24T01:37:12.228Z,0
2017-07-24T01:38:13.471Z,0
2017-07-24T01:39:14.728Z,0
2017-07-24T01:40:15.969Z,0
2017-07-24T01:41:17.194Z,0
2017-07-24T01:42:18.432Z,0
2017-07-24T01:43:19.665Z,0
2017-07-24T01:44:20.934Z,0
2017-07-24T01:45:22.262Z,0
2017-07-24T01:46:23.501Z,0
2017-07-24T01:47:24.736Z,0
2017-07-24T01:48:25.979Z,0
2017-07-24T01:49:27.327Z,0
2017-07-24T01:50:28.620Z,0
2017-07-24T01:51:29.855Z,0
2017-07-24T01:52:31.084Z,0
2017-07-24T01:53:32.320Z,0
2017-07-24T01:54:33.563Z,0
2017-07-24T01:55:34.791Z,0
2017-07-24T01:56:36.051Z,0
2017-07-24T01:57:37.269Z,0
2017-07-24T01:58:38.623Z,0
2017-07-24T01:59:39.857Z,0
2017-07-24T02:00:41.098Z,0
2017-07-24T02:01:42.331Z,0
2017-07-24T02:02:43.578Z,0
2017-07-24T02:03:44.814Z,0
2017-07-24T02:04:46.058Z,0
2017-07-24T02:05:47.296Z,0
2017-07-24T02:06:48.534Z,0
2017-07-24T02:07:49.887Z,0
2017-07-24T02:08:51.203Z,0
2017-07-24T02:09:52.561Z,0
2017-07-24T02:10:53.794Z,0
2017-07-24T02:11:55.048Z,0
2017-07-24T02:12:56.266Z,0
2017-07-24T02:13:57.504Z,0
2017-07-24T02:14:58.834Z,0
2017-07-24T02:16:00.081Z,0
2017-07-24T02:17:01.393Z,0
2017-07-24T02:18:02.611Z,0
2017-07-24T02:19:03.840Z,0
2017-07-24T02:20:05.075Z,0
2017-07-24T02:21:06.336Z,0
2017-07-24T02:22:07.663Z,0
2017-07-24T02:23:08.886Z,0
2017-07-24T02:24:10.126Z,0
2017-07-24T02:25:11.357Z,0
2017-07-24T02:26:12.601Z,0
2017-07-24T02:27:13.836Z,0
2017-07-24T02:28:15.234Z,0
2017-07-24T02:29:16.514Z,0
2017-07-24T02:30:17.744Z,0
2017-07-24T02:31:18.973Z,0
2017-07-24T02:32:20.214Z,0
2017-07-24T02:33:21.488Z,0
2017-07-24T02:34:22.732Z,0
2017-07-24T02:35:23.978Z,0
2017-07-24T02:36:25.210Z,0
2017-07-24T02:37:26.454Z,0
2017-07-24T02:38:27.686Z,0
2017-07-24T02:39:28.928Z,0
2017-07-24T02:40:30.164Z,0
2017-07-24T02:41:31.432Z,0
2017-07-24T02:42:32.724Z,0
2017-07-24T02:43:33.960Z,0
2017-07-24T02:44:35.191Z,0
2017-07-24T02:45:36.427Z,0
2017-07-24T02:46:37.666Z,0
2017-07-24T02:47:38.905Z,0
2017-07-24T02:48:40.143Z,0
2017-07-24T02:49:41.384Z,0
2017-07-24T02:50:42.644Z,0
2017-07-24T02:51:43.879Z,0
2017-07-24T02:52:45.194Z,0
2017-07-24T02:53:46.528Z,0
2017-07-24T02:54:47.763Z,0
2017-07-24T02:55:49.049Z,0
2017-07-24T02:56:50.286Z,0
2017-07-24T02:57:51.529Z,0
2017-07-24T02:58:52.883Z,0
2017-07-24T02:59:54.237Z,0
2017-07-24T03:00:55.524Z,0
2017-07-24T03:01:56.751Z,0
2017-07-24T03:02:58.007Z,0
2017-07-24T03:03:59.231Z,0
2017-07-24T03:05:00.482Z,0
2017-07-24T03:06:01.729Z,0
2017-07-24T03:07:03.078Z,0
2017-07-24T03:08:04.305Z,0
2017-07-24T03:09:05.546Z,0
2017-07-24T03:10:06.811Z,0
2017-07-24T03:11:08.065Z,4
2017-07-24T03:12:09.308Z,4
2017-07-24T03:13:10.655Z,4
2017-07-24T03:14:11.882Z,0
2017-07-24T03:15:13.127Z,4
2017-07-24T03:16:14.362Z,4
2017-07-24T03:17:15.602Z,4
2017-07-24T03:18:16.857Z,4
2017-07-24T03:19:18.209Z,4
2017-07-24T03:20:19.432Z,8
2017-07-24T03:21:20.667Z,8
2017-07-24T03:22:21.897Z,8
2017-07-24T03:23:23.131Z,12
2017-07-24T03:24:24.364Z,16
2017-07-24T03:25:25.605Z,16
2017-07-24T03:26:26.842Z,16
2017-07-24T03:27:28.079Z,20
2017-07-24T03:28:29.320Z,20
2017-07-24T03:29:30.560Z,24
2017-07-24T03:30:31.852Z,24
2017-07-24T03:31:33.201Z,32
2017-07-24T03:32:34.564Z,36
2017-07-24T03:33:35.800Z,36
2017-07-24T03:34:37.048Z,44
2017-07-24T03:35:38.283Z,44
2017-07-24T03:36:39.592Z,48
2017-07-24T03:37:40.913Z,52
2017-07-24T03:38:42.237Z,56
2017-07-24T03:39:43.458Z,56
2017-07-24T03:40:44.699Z,60
2017-07-24T03:41:45.937Z,68
2017-07-24T03:42:47.165Z,72
2017-07-24T03:43:48.483Z,76
2017-07-24T03:44:49.724Z,84
2017-07-24T03:45:50.964Z,84
2017-07-24T03:46:52.202Z,88
2017-07-24T03:47:53.437Z,96
2017-07-24T03:48:54.809Z,104
2017-07-24T03:49:56.049Z,108
2017-07-24T03:50:57.310Z,112
2017-07-24T03:51:58.553Z,120
2017-07-24T03:52:59.782Z,132
2017-07-24T03:54:01.042Z,140
2017-07-24T03:55:02.275Z,148
2017-07-24T03:56:03.743Z,160
2017-07-24T03:57:05.013Z,172
2017-07-24T03:58:06.254Z,184
2017-07-24T03:59:07.493Z,188
2017-07-24T04:00:08.730Z,196
2017-07-24T04:01:09.971Z,208
2017-07-24T04:02:11.276Z,220
2017-07-24T04:03:12.617Z,228
2017-07-24T04:04:13.857Z,240
2017-07-24T04:05:15.200Z,248
2017-07-24T04:06:16.430Z,260
2017-07-24T04:07:17.687Z,276
2017-07-24T04:08:19.012Z,292
2017-07-24T04:09:20.246Z,320
2017-07-24T04:10:21.481Z,336
2017-07-24T04:11:22.725Z,360
2017-07-24T04:12:23.957Z,384
2017-07-24T04:13:25.195Z,412
2017-07-24T04:14:26.503Z,444
2017-07-24T04:15:27.727Z,488
2017-07-24T04:16:28.965Z,524
2017-07-24T04:17:30.208Z,548
2017-07-24T04:18:31.454Z,564
2017-07-24T04:19:32.689Z,588
2017-07-24T04:20:33.929Z,616
2017-07-24T04:21:35.433Z,664
2017-07-24T04:22:36.730Z,724
2017-07-24T04:23:37.982Z,808
2017-07-24T04:24:39.208Z,904
2017-07-24T04:25:40.447Z,1000
2017-07-24T04:26:41.677Z,1068
2017-07-24T04:27:43.043Z,1056
2017-07-24T04:28:44.391Z,988
2017-07-24T04:29:45.616Z,976
2017-07-24T04:30:46.853Z,1016
2017-07-24T04:31:48.088Z,1048
2017-07-24T04:32:49.383Z,1044
2017-07-24T04:33:50.704Z,1004
2017-07-24T04:34:51.941Z,996
2017-07-24T04:35:53.230Z,1036
2017-07-24T04:36:54.455Z,1032
2017-07-24T04:37:55.696Z,956
2017-07-24T04:38:56.943Z,868
2017-07-24T04:39:58.284Z,816
2017-07-24T04:40:59.523Z,820
2017-07-24T04:42:00.772Z,884
2017-07-24T04:43:02.013Z,936
2017-07-24T04:44:03.249Z,1028
2017-07-24T04:45:04.509Z,1160
2017-07-24T04:46:05.714Z,1244
2017-07-24T04:47:07.079Z,1272
2017-07-24T04:48:08.312Z,1260
2017-07-24T04:49:09.552Z,1228
2017-07-24T04:50:10.774Z,1232
2017-07-24T04:51:12.041Z,1176
2017-07-24T04:52:13.355Z,1096
2017-07-24T04:53:14.655Z,1000
2017-07-24T04:54:15.911Z,924
2017-07-24T04:55:17.131Z,896
2017-07-24T04:56:18.369Z,880
2017-07-24T04:57:19.679Z,888
2017-07-24T04:58:21.010Z,928
2017-07-24T04:59:22.257Z,984
2017-07-24T05:00:23.509Z,1044
2017-07-24T05:01:24.773Z,1040
2017-07-24T05:02:26.012Z,1012
2017-07-24T05:03:27.261Z,964
2017-07-24T05:04:28.506Z,876
2017-07-24T05:05:29.802Z,788
2017-07-24T05:06:31.038Z,744
2017-07-24T05:07:32.310Z,820
2017-07-24T05:08:33.573Z,940
2017-07-24T05:09:34.918Z,1040
2017-07-24T05:10:36.153Z,1140
2017-07-24T05:11:37.398Z,1272
2017-07-24T05:12:38.633Z,1344
2017-07-24T05:13:39.878Z,1412
2017-07-24T05:14:41.103Z,1440
2017-07-24T05:15:42.342Z,1416
2017-07-24T05:16:43.599Z,1348
2017-07-24T05:17:44.836Z,1236
2017-07-24T05:18:46.126Z,1256
2017-07-24T05:19:47.418Z,1300
2017-07-24T05:20:48.657Z,1348
2017-07-24T05:21:49.906Z,1376
2017-07-24T05:22:51.144Z,1292
2017-07-24T05:23:52.509Z,1196
2017-07-24T05:24:53.662Z,1184
2017-07-24T05:25:54.956Z,1164
2017-07-24T05:26:56.192Z,1148
2017-07-24T05:27:57.428Z,1112
2017-07-24T05:28:58.678Z,1056
2017-07-24T05:29:59.922Z,1032
2017-07-24T05:31:01.528Z,1048
2017-07-24T05:32:02.822Z,1104
2017-07-24T05:33:04.067Z,1212
2017-07-24T05:34:05.297Z,1284
2017-07-24T05:35:06.556Z,1292
2017-07-24T05:36:07.781Z,1280
2017-07-24T05:37:09.114Z,1252
2017-07-24T05:38:10.351Z,1292
2017-07-24T05:39:11.588Z,1296
2017-07-24T05:40:12.849Z,1228
2017-07-24T05:41:14.072Z,1184
2017-07-24T05:42:15.414Z,1204
2017-07-24T05:43:16.662Z,1220
2017-07-24T05:44:17.912Z,1164
2017-07-24T05:45:19.137Z,1236
2017-07-24T05:46:20.369Z,1268
2017-07-24T05:47:21.604Z,1292
2017-07-24T05:48:22.835Z,1296
2017-07-24T05:49:24.063Z,1292
2017-07-24T05:50:25.321Z,1264
2017-07-24T05:51:26.552Z,1480
2017-07-24T05:52:27.781Z,1828
2017-07-24T05:53:29.020Z,2024
2017-07-24T05:54:30.280Z,2136
2017-07-24T05:55:31.509Z,2132
2017-07-24T05:56:32.865Z,2092
2017-07-24T05:57:34.082Z,1992
2017-07-24T05:58:35.318Z,1944
2017-07-24T05:59:36.564Z,1936
2017-07-24T06:00:37.891Z,1784
2017-07-24T06:01:39.176Z,1780
2017-07-24T06:02:40.413Z,1616
2017-07-24T06:03:41.647Z,1584
2017-07-24T06:04:42.880Z,1640
2017-07-24T06:05:44.115Z,1896
2017-07-24T06:06:45.350Z,1880
2017-07-24T06:07:46.665Z,1784
2017-07-24T06:08:47.844Z,1864
2017-07-24T06:09:49.096Z,1976
2017-07-24T06:10:50.323Z,1652
2017-07-24T06:11:51.565Z,1564
2017-07-24T06:12:52.808Z,1360
2017-07-24T06:13:54.078Z,1340
2017-07-24T06:14:55.298Z,1616
2017-07-24T06:15:56.557Z,2012
2017-07-24T06:16:57.797Z,2152
2017-07-24T06:17:59.116Z,2288
2017-07-24T06:19:00.346Z,2016
2017-07-24T06:20:01.616Z,1876
2017-07-24T06:21:02.896Z,2032
2017-07-24T06:22:04.174Z,1864
2017-07-24T06:23:05.397Z,1884
2017-07-24T06:24:06.631Z,1844
2017-07-24T06:25:07.868Z,1792
2017-07-24T06:26:09.102Z,1828
2017-07-24T06:27:10.336Z,2144
2017-07-24T06:28:11.587Z,2344
2017-07-24T06:29:12.874Z,2288
2017-07-24T06:30:14.116Z,3056
2017-07-24T06:31:15.352Z,3360
2017-07-24T06:32:16.590Z,3088
2017-07-24T06:33:17.940Z,3180
2017-07-24T06:34:19.212Z,3892
2017-07-24T06:35:20.433Z,3884
2017-07-24T06:36:21.669Z,3660
2017-07-24T06:37:23.013Z,3656
2017-07-24T06:38:24.248Z,3428
2017-07-24T06:39:25.543Z,3568
2017-07-24T06:40:26.795Z,3328
2017-07-24T06:41:28.050Z,3260
2017-07-24T06:42:29.295Z,3164
2017-07-24T06:43:30.538Z,3088
2017-07-24T06:44:31.774Z,2896
2017-07-24T06:45:33.142Z,2836
2017-07-24T06:46:34.351Z,2772
2017-07-24T06:47:35.631Z,2932
2017-07-24T06:48:36.936Z,3112
2017-07-24T06:49:38.175Z,2916
2017-07-24T06:50:39.414Z,2984
2017-07-24T06:51:40.658Z,3280
2017-07-24T06:52:41.916Z,3000
2017-07-24T06:53:43.173Z,2724
2017-07-24T06:54:44.493Z,2188
2017-07-24T06:55:45.736Z,2044
2017-07-24T06:56:46.975Z,2428
2017-07-24T06:57:48.201Z,2352
2017-07-24T06:58:49.440Z,2484
2017-07-24T06:59:50.683Z,3196
2017-07-24T07:00:51.916Z,4328
2017-07-24T07:01:53.169Z,4628
2017-07-24T07:02:54.402Z,4836
2017-07-24T07:03:55.635Z,4468
2017-07-24T07:04:56.919Z,4304
2017-07-24T07:05:58.405Z,4928
2017-07-24T07:06:59.674Z,5236
2017-07-24T07:08:00.913Z,4904
2017-07-24T07:09:02.177Z,5304
2017-07-24T07:10:03.414Z,5796
2017-07-24T07:11:04.643Z,5352
2017-07-24T07:12:05.874Z,6072
2017-07-24T07:13:07.124Z,6448
2017-07-24T07:14:08.370Z,6240
2017-07-24T07:15:09.615Z,6020
2017-07-24T07:16:10.937Z,5700
2017-07-24T07:17:12.174Z,5428
2017-07-24T07:18:13.406Z,5464
2017-07-24T07:19:14.643Z,4988
2017-07-24T07:20:15.893Z,4216
2017-07-24T07:21:17.178Z,3844
2017-07-24T07:22:18.425Z,3672
2017-07-24T07:23:19.695Z,3648
2017-07-24T07:24:20.940Z,3824
2017-07-24T07:25:22.165Z,3956
2017-07-24T07:26:23.433Z,3844
2017-07-24T07:27:24.683Z,3744
2017-07-24T07:28:25.920Z,3580
2017-07-24T07:29:27.153Z,3376
2017-07-24T07:30:28.398Z,3416
2017-07-24T07:31:29.754Z,3260
2017-07-24T07:32:31.152Z,3104
2017-07-24T07:33:32.407Z,2948
2017-07-24T07:34:33.658Z,2836
2017-07-24T07:35:34.897Z,2812
2017-07-24T07:36:36.140Z,2980
2017-07-24T07:37:37.415Z,3128
2017-07-24T07:38:38.664Z,3256
2017-07-24T07:39:39.904Z,3412
2017-07-24T07:40:41.142Z,3680
2017-07-24T07:41:42.381Z,3928
2017-07-24T07:42:43.621Z,4072
2017-07-24T07:43:44.881Z,4144
2017-07-24T07:44:46.127Z,4216
2017-07-24T07:45:47.357Z,4276
2017-07-24T07:46:48.713Z,4356
2017-07-24T07:47:49.964Z,4468
2017-07-24T07:48:51.208Z,4592
2017-07-24T07:49:52.452Z,4732
2017-07-24T07:50:53.684Z,4868
2017-07-24T07:51:54.924Z,5000
2017-07-24T07:52:56.171Z,5116
2017-07-24T07:53:57.407Z,5224
2017-07-24T07:54:58.648Z,5316
2017-07-24T07:55:59.899Z,5404
2017-07-24T07:57:01.188Z,5484
2017-07-24T07:58:02.440Z,5556
2017-07-24T07:59:03.713Z,5628
2017-07-24T08:00:04.977Z,5680
2017-07-24T08:01:06.221Z,5712
2017-07-24T08:02:07.451Z,5732
2017-07-24T08:03:08.694Z,5732
2017-07-24T08:04:09.938Z,5708
2017-07-24T08:05:11.447Z,5704
2017-07-24T08:06:12.764Z,5708
2017-07-24T08:07:14.031Z,5712
2017-07-24T08:08:15.248Z,5720
2017-07-24T08:09:16.494Z,5752
2017-07-24T08:10:17.720Z,5796
2017-07-24T08:11:18.955Z,5872
2017-07-24T08:12:20.197Z,5944
2017-07-24T08:13:21.433Z,5996
2017-07-24T08:14:22.674Z,6004
2017-07-24T08:15:23.911Z,5952
2017-07-24T08:16:25.164Z,5836
2017-07-24T08:17:26.411Z,5684
2017-07-24T08:18:27.696Z,5548
2017-07-24T08:19:28.939Z,5396
2017-07-24T08:20:30.180Z,5268
2017-07-24T08:21:31.418Z,5176
2017-07-24T08:22:32.825Z,5056
2017-07-24T08:23:33.952Z,5032
2017-07-24T08:24:35.272Z,5136
2017-07-24T08:25:36.521Z,5268
2017-07-24T08:26:37.750Z,5316
2017-07-24T08:27:39.002Z,5388
2017-07-24T08:28:40.221Z,5588
2017-07-24T08:29:41.549Z,5696
2017-07-24T08:30:42.808Z,5680
2017-07-24T08:31:44.048Z,5620
2017-07-24T08:32:45.296Z,5576
2017-07-24T08:33:46.536Z,5576
2017-07-24T08:34:47.805Z,5640
2017-07-24T08:35:49.094Z,5716
2017-07-24T08:36:50.351Z,5832
2017-07-24T08:37:51.638Z,5948
2017-07-24T08:38:52.911Z,6080
2017-07-24T08:39:54.148Z,6200
2017-07-24T08:40:55.388Z,6300
2017-07-24T08:41:56.780Z,6388
2017-07-24T08:42:58.015Z,6504
2017-07-24T08:43:59.387Z,6664
2017-07-24T08:45:00.633Z,6872
2017-07-24T08:46:01.866Z,7116
2017-07-24T08:47:03.107Z,7388
2017-07-24T08:48:04.340Z,7672
2017-07-24T08:49:05.581Z,7956
2017-07-24T08:50:06.823Z,8212
2017-07-24T08:51:08.067Z,8432
2017-07-24T08:52:09.298Z,8560
2017-07-24T08:53:10.558Z,8556
2017-07-24T08:54:11.864Z,8476
2017-07-24T08:55:13.103Z,8420
2017-07-24T08:56:14.345Z,8392
2017-07-24T08:57:15.577Z,8424
2017-07-24T08:58:16.821Z,8488
2017-07-24T08:59:18.095Z,8540
2017-07-24T09:00:19.363Z,8536
2017-07-24T09:01:20.694Z,8500
2017-07-24T09:02:21.928Z,8464
2017-07-24T09:03:23.168Z,8464
2017-07-24T09:04:24.409Z,8524
2017-07-24T09:05:25.667Z,8644
2017-07-24T09:06:27.039Z,8772
2017-07-24T09:07:28.162Z,8872
2017-07-24T09:08:29.482Z,8940
2017-07-24T09:09:30.734Z,8968
2017-07-24T09:10:31.975Z,8968
2017-07-24T09:11:33.219Z,8932
2017-07-24T09:12:34.465Z,8880
2017-07-24T09:13:35.828Z,8820
2017-07-24T09:14:37.098Z,8812
2017-07-24T09:15:38.322Z,8820
2017-07-24T09:16:39.556Z,8772
2017-07-24T09:17:40.817Z,8680
2017-07-24T09:18:42.143Z,8572
2017-07-24T09:19:43.468Z,8412
2017-07-24T09:20:44.717Z,8304
2017-07-24T09:21:45.964Z,8324
2017-07-24T09:22:47.211Z,8236
2017-07-24T09:23:48.449Z,8260
2017-07-24T09:24:49.698Z,8348
2017-07-24T09:25:50.940Z,8548
2017-07-24T09:26:52.196Z,8560
2017-07-24T09:27:53.426Z,8596
2017-07-24T09:28:54.659Z,8608
2017-07-24T09:29:55.900Z,8520
2017-07-24T09:30:57.148Z,8104
2017-07-24T09:31:58.382Z,7424
2017-07-24T09:32:59.743Z,6788
2017-07-24T09:34:01.004Z,6400
2017-07-24T09:35:02.249Z,6192
2017-07-24T09:36:03.497Z,6000
2017-07-24T09:37:04.757Z,6260
2017-07-24T09:38:05.985Z,6272
2017-07-24T09:39:07.326Z,6412
2017-07-24T09:40:08.626Z,6500
2017-07-24T09:41:09.869Z,6936
2017-07-24T09:42:11.121Z,7480
2017-07-24T09:43:12.362Z,7992
2017-07-24T09:44:13.599Z,8324
2017-07-24T09:45:14.903Z,8392
2017-07-24T09:46:16.139Z,8492
2017-07-24T09:47:17.382Z,8532
2017-07-24T09:48:18.637Z,8480
2017-07-24T09:49:19.874Z,8408
2017-07-24T09:50:21.198Z,8316
2017-07-24T09:51:22.439Z,8248
2017-07-24T09:52:23.687Z,8220
2017-07-24T09:53:24.914Z,8180
2017-07-24T09:54:26.154Z,8168
2017-07-24T09:55:27.404Z,8204
2017-07-24T09:56:28.640Z,8180
2017-07-24T09:57:29.893Z,8104
2017-07-24T09:58:31.223Z,8084
2017-07-24T09:59:32.549Z,8124
2017-07-24T10:00:33.807Z,8164
2017-07-24T10:01:35.050Z,8220
2017-07-24T10:02:36.275Z,8292
2017-07-24T10:03:37.516Z,8340
2017-07-24T10:04:38.770Z,8368
2017-07-24T10:05:40.001Z,8380
2017-07-24T10:06:41.282Z,8384
2017-07-24T10:07:42.550Z,8384
2017-07-24T10:08:43.786Z,8376
2017-07-24T10:09:45.161Z,8440
2017-07-24T10:10:46.380Z,8540
2017-07-24T10:11:47.703Z,8628
2017-07-24T10:12:48.947Z,8764
2017-07-24T10:13:50.200Z,9036
2017-07-24T10:14:51.439Z,9400
2017-07-24T10:15:52.690Z,9820
2017-07-24T10:16:53.937Z,10232
2017-07-24T10:17:55.187Z,10548
2017-07-24T10:18:56.433Z,10688
2017-07-24T10:19:57.673Z,10764
2017-07-24T10:20:58.910Z,10828
2017-07-24T10:22:00.151Z,10824
2017-07-24T10:23:01.423Z,10704
2017-07-24T10:24:02.737Z,10796
2017-07-24T10:25:03.978Z,10756
2017-07-24T10:26:05.243Z,10676
2017-07-24T10:27:06.474Z,10484
2017-07-24T10:28:07.721Z,10232
2017-07-24T10:29:08.974Z,10000
2017-07-24T10:30:10.199Z,9824
2017-07-24T10:31:11.542Z,9732
2017-07-24T10:32:12.779Z,9736
2017-07-24T10:33:14.020Z,9820
2017-07-24T10:34:15.259Z,10076
2017-07-24T10:35:16.495Z,10480
2017-07-24T10:36:17.835Z,10856
2017-07-24T10:37:19.104Z,11160
2017-07-24T10:38:20.344Z,11448
2017-07-24T10:39:21.591Z,11840
2017-07-24T10:40:22.835Z,12260
2017-07-24T10:41:24.135Z,12736
2017-07-24T10:42:25.366Z,13188
2017-07-24T10:43:26.663Z,13608
2017-07-24T10:44:27.943Z,14072
2017-07-24T10:45:29.198Z,14596
2017-07-24T10:46:30.435Z,15040
2017-07-24T10:47:31.676Z,15452
2017-07-24T10:48:33.017Z,15936
2017-07-24T10:49:34.257Z,16428
2017-07-24T10:50:35.494Z,17056
2017-07-24T10:51:36.753Z,17408
2017-07-24T10:52:37.990Z,17536
2017-07-24T10:53:39.234Z,17504
2017-07-24T10:54:40.494Z,17344
2017-07-24T10:55:41.819Z,17120
2017-07-24T10:56:43.046Z,16864
2017-07-24T10:57:44.293Z,16468
2017-07-24T10:58:45.526Z,16280
2017-07-24T10:59:46.764Z,16096
2017-07-24T11:00:48.045Z,15920
2017-07-24T11:01:49.297Z,15736
2017-07-24T11:02:50.536Z,15544
2017-07-24T11:03:51.797Z,15192
2017-07-24T11:04:53.089Z,14660
2017-07-24T11:05:54.331Z,13840
2017-07-24T11:06:55.571Z,13388
2017-07-24T11:07:56.917Z,13328
2017-07-24T11:08:58.158Z,13184
2017-07-24T11:09:59.506Z,13292
2017-07-24T11:11:00.745Z,13860
2017-07-24T11:12:01.998Z,14560
2017-07-24T11:13:03.248Z,14828
2017-07-24T11:14:04.471Z,14908
2017-07-24T11:15:05.722Z,14804
2017-07-24T11:16:07.056Z,14528
2017-07-24T11:17:08.293Z,14844
2017-07-24T11:18:09.516Z,14916
2017-07-24T11:19:10.779Z,14472
2017-07-24T11:20:12.009Z,14396
2017-07-24T11:21:13.256Z,14372
2017-07-24T11:22:14.594Z,13896
2017-07-24T11:23:15.834Z,14540
2017-07-24T11:24:17.092Z,15728
2017-07-24T11:25:18.330Z,16496
2017-07-24T11:26:19.583Z,15920
2017-07-24T11:27:20.875Z,14260
2017-07-24T11:28:22.111Z,13088
2017-07-24T11:29:23.369Z,12632
2017-07-24T11:30:24.622Z,12004
2017-07-24T11:31:25.843Z,11284
2017-07-24T11:32:27.083Z,11248
2017-07-24T11:33:28.327Z,12084
2017-07-24T11:34:29.612Z,12360
2017-07-24T11:35:30.882Z,11908
2017-07-24T11:36:32.114Z,11692
2017-07-24T11:37:33.394Z,11936
2017-07-24T11:38:34.644Z,12872
2017-07-24T11:39:35.900Z,13988
2017-07-24T11:40:37.161Z,14508
2017-07-24T11:41:38.421Z,14596
2017-07-24T11:42:39.658Z,14636
2017-07-24T11:43:40.987Z,15208
2017-07-24T11:44:42.222Z,15452
2017-07-24T11:45:43.467Z,15420
2017-07-24T11:46:44.699Z,15228
2017-07-24T11:47:45.933Z,14840
2017-07-24T11:48:47.242Z,14256
2017-07-24T11:49:48.477Z,13752
2017-07-24T11:50:49.719Z,13408
2017-07-24T11:51:50.976Z,12620
2017-07-24T11:52:52.296Z,11288
2017-07-24T11:53:53.649Z,9424
2017-07-24T11:54:54.905Z,7856
2017-07-24T11:55:56.112Z,7092
2017-07-24T11:56:57.352Z,6960
2017-07-24T11:57:58.590Z,7068
2017-07-24T11:58:59.830Z,7396
2017-07-24T12:00:01.059Z,7760
2017-07-24T12:01:02.314Z,8292
2017-07-24T12:02:03.559Z,8828
2017-07-24T12:03:04.807Z,9352
2017-07-24T12:04:06.075Z,10484
2017-07-24T12:05:07.319Z,11840
2017-07-24T12:06:08.542Z,13348
2017-07-24T12:07:09.853Z,14196
2017-07-24T12:08:11.106Z,15372
2017-07-24T12:09:12.346Z,16640
2017-07-24T12:10:13.580Z,16768
2017-07-24T12:11:14.822Z,15908
2017-07-24T12:12:16.166Z,14476
2017-07-24T12:13:17.409Z,14536
2017-07-24T12:14:18.738Z,13416
2017-07-24T12:15:19.975Z,11576
2017-07-24T12:16:21.220Z,11160
2017-07-24T12:17:22.477Z,12080
2017-07-24T12:18:23.746Z,13588
2017-07-24T12:19:24.967Z,15348
2017-07-24T12:20:26.205Z,16544
2017-07-24T12:21:27.483Z,17184
2017-07-24T12:22:28.720Z,17536
2017-07-24T12:23:29.965Z,17568
2017-07-24T12:24:31.200Z,17344
2017-07-24T12:25:32.447Z,17280
2017-07-24T12:26:33.690Z,16416
2017-07-24T12:27:34.932Z,15652
2017-07-24T12:28:36.176Z,16608
2017-07-24T12:29:37.410Z,18048
2017-07-24T12:30:38.650Z,19648
2017-07-24T12:31:40.009Z,20512
2017-07-24T12:32:41.277Z,20736
2017-07-24T12:33:42.509Z,20256
2017-07-24T12:34:43.750Z,19264
2017-07-24T12:35:45.031Z,18240
2017-07-24T12:36:46.281Z,17632
2017-07-24T12:37:47.597Z,17472
2017-07-24T12:38:48.837Z,17504
2017-07-24T12:39:50.116Z,17568
2017-07-24T12:40:51.462Z,17632
2017-07-24T12:41:52.692Z,17824
2017-07-24T12:42:53.941Z,18144
2017-07-24T12:43:55.196Z,18656
2017-07-24T12:44:56.439Z,19200
2017-07-24T12:45:57.776Z,19616
2017-07-24T12:46:59.027Z,19840
2017-07-24T12:48:00.288Z,19904
2017-07-24T12:49:01.528Z,19616
2017-07-24T12:50:02.884Z,19072
2017-07-24T12:51:04.061Z,18272
2017-07-24T12:52:05.356Z,17472
2017-07-24T12:53:06.603Z,16672
2017-07-24T12:54:07.846Z,16100
2017-07-24T12:55:09.089Z,15644
2017-07-24T12:56:10.330Z,15396
2017-07-24T12:57:11.551Z,15332
2017-07-24T12:58:12.824Z,15336
2017-07-24T12:59:14.048Z,15368
2017-07-24T13:00:15.288Z,15304
2017-07-24T13:01:16.535Z,14940
2017-07-24T13:02:17.774Z,14620
2017-07-24T13:03:19.073Z,14864
2017-07-24T13:04:20.331Z,15204
2017-07-24T13:05:21.567Z,15456
2017-07-24T13:06:22.800Z,15508
2017-07-24T13:07:24.042Z,15460
2017-07-24T13:08:25.282Z,15520
2017-07-24T13:09:26.525Z,15584
2017-07-24T13:10:27.767Z,15872
2017-07-24T13:11:29.115Z,16008
2017-07-24T13:12:30.351Z,15984
2017-07-24T13:13:31.603Z,16164
2017-07-24T13:14:32.839Z,16236
2017-07-24T13:15:34.122Z,16332
2017-07-24T13:16:35.461Z,16304
2017-07-24T13:17:36.755Z,16116
2017-07-24T13:18:37.993Z,15856
2017-07-24T13:19:39.347Z,15480
2017-07-24T13:20:40.597Z,14904
2017-07-24T13:21:41.976Z,14160
2017-07-24T13:22:43.197Z,13364
2017-07-24T13:23:44.521Z,13296
2017-07-24T13:24:45.765Z,13904
2017-07-24T13:25:47.002Z,14504
2017-07-24T13:26:48.241Z,14828
2017-07-24T13:27:49.570Z,15128
2017-07-24T13:28:50.851Z,15244
2017-07-24T13:29:52.090Z,15284
2017-07-24T13:30:53.367Z,15360
2017-07-24T13:31:54.606Z,15420
2017-07-24T13:32:55.847Z,15480
2017-07-24T13:33:57.097Z,15496
2017-07-24T13:34:58.347Z,15508
2017-07-24T13:35:59.656Z,15612
2017-07-24T13:37:00.923Z,15656
2017-07-24T13:38:02.184Z,15688
2017-07-24T13:39:03.421Z,15792
2017-07-24T13:40:04.668Z,15892
2017-07-24T13:41:05.919Z,15992
2017-07-24T13:42:07.228Z,16076
2017-07-24T13:43:08.471Z,16160
2017-07-24T13:44:09.728Z,16248
2017-07-24T13:45:10.977Z,16296
2017-07-24T13:46:12.243Z,16268
2017-07-24T13:47:13.505Z,16240
2017-07-24T13:48:14.815Z,16164
2017-07-24T13:49:16.069Z,16144
2017-07-24T13:50:17.333Z,16104
2017-07-24T13:51:18.569Z,16072
2017-07-24T13:52:19.821Z,16024